createdAt,value
2023-02-24T00:05:44.334Z,100.00
2023-02-24T00:11:53.685Z,100.00
2023-02-24T00:17:55.700Z,100.00
2023-02-24T00:23:59.412Z,100.00
2023-02-24T00:30:01.795Z,99.81
2023-02-24T00:36:06.940Z,99.43
2023-02-24T00:42:08.990Z,99.34
2023-02-24T00:48:10.903Z,95.50
2023-02-24T00:54:15.035Z,95.07
2023-02-24T01:00:17.837Z,95.55
2023-02-24T01:06:21.731Z,95.29
2023-02-24T01:12:23.601Z,95.26
2023-02-24T01:18:25.502Z,95.61
2023-02-24T01:24:33.329Z,94.55
2023-02-24T01:30:35.517Z,94.76
2023-02-24T01:36:39.404Z,95.17
2023-02-24T01:42:42.194Z,94.69
2023-02-24T01:48:44.584Z,94.79
2023-02-24T01:54:58.946Z,95.21
2023-02-24T02:01:00.851Z,94.69
2023-02-24T02:07:17.409Z,94.66
2023-02-24T02:13:20.984Z,92.80
2023-02-24T02:19:56.830Z,93.31
2023-02-24T02:26:22.018Z,92.73
2023-02-24T02:32:52.130Z,93.50
2023-02-24T02:39:14.385Z,92.55
2023-02-24T02:45:40.211Z,92.52
2023-02-24T02:51:53.859Z,92.68
2023-02-24T02:57:59.096Z,91.07
2023-02-24T03:04:06.001Z,91.56
2023-02-24T03:10:20.781Z,91.74
2023-02-24T03:16:26.643Z,92.65
2023-02-24T03:22:42.406Z,93.52
2023-02-24T03:29:05.976Z,94.20
2023-02-24T03:35:38.442Z,94.42
2023-02-24T03:41:56.156Z,94.42
2023-02-24T03:47:59.855Z,94.94
2023-02-24T03:54:35.082Z,95.10
2023-02-24T04:00:59.466Z,95.03
2023-02-24T04:07:14.359Z,94.55
2023-02-24T04:13:43.302Z,94.74
2023-02-24T04:19:50.831Z,94.73
2023-02-24T04:25:56.326Z,95.04
2023-02-24T04:32:03.876Z,95.53
2023-02-24T04:38:06.235Z,95.27
2023-02-24T04:44:08.094Z,94.25
2023-02-24T04:50:11.493Z,92.87
2023-02-24T04:56:13.434Z,92.76
2023-02-24T05:02:18.262Z,93.74
2023-02-24T05:08:21.807Z,93.95
2023-02-24T05:14:24.999Z,93.78
2023-02-24T05:20:47.015Z,93.38
2023-02-24T05:26:49.223Z,92.94
2023-02-24T05:32:54.382Z,93.34
2023-02-24T05:39:07.614Z,93.86
2023-02-24T05:45:11.270Z,93.70
2023-02-24T05:51:13.457Z,94.25
2023-02-24T05:57:27.407Z,94.15
2023-02-24T06:03:31.057Z,94.40
2023-02-24T06:09:34.560Z,95.95
2023-02-24T06:15:37.482Z,96.08
2023-02-24T06:21:42.257Z,96.74
2023-02-24T06:27:44.173Z,96.91
2023-02-24T06:33:46.093Z,96.98
2023-02-24T06:39:48.071Z,96.75
2023-02-24T06:45:50.275Z,94.90
2023-02-24T06:51:52.409Z,93.70
2023-02-24T06:58:04.549Z,94.51
2023-02-24T07:04:09.133Z,91.99
2023-02-24T07:10:14.517Z,90.98
2023-02-24T07:16:25.218Z,89.20
2023-02-24T07:22:27.243Z,90.38
2023-02-24T07:28:29.130Z,90.17
2023-02-24T07:34:31.976Z,90.80
2023-02-24T07:40:34.411Z,89.79
2023-02-24T07:46:37.141Z,88.49
2023-02-24T07:52:39.884Z,84.69
2023-02-24T07:58:44.857Z,83.67
2023-02-24T08:04:51.428Z,83.96
2023-02-24T08:11:03.937Z,83.60
2023-02-24T08:17:05.805Z,84.00
2023-02-24T08:23:10.854Z,85.45
2023-02-24T08:29:13.349Z,85.68
2023-02-24T08:35:20.535Z,84.02
2023-02-24T08:41:38.582Z,83.98
2023-02-24T08:47:42.016Z,81.32
2023-02-24T08:53:46.798Z,81.35
2023-02-24T08:59:57.645Z,83.38
2023-02-24T09:06:08.901Z,82.29
2023-02-24T09:12:22.043Z,82.59
2023-02-24T09:18:30.204Z,84.24
2023-02-24T09:24:32.786Z,84.38
2023-02-24T09:30:54.002Z,81.83
2023-02-24T09:37:03.068Z,80.43
2023-02-24T09:43:11.083Z,79.77
2023-02-24T09:49:17.787Z,78.89
2023-02-24T09:55:35.713Z,78.94
2023-02-24T10:02:03.035Z,81.45
2023-02-24T10:08:26.095Z,80.51
2023-02-24T10:14:44.268Z,78.74
2023-02-24T10:20:49.370Z,80.02
2023-02-24T10:27:16.866Z,80.98
2023-02-24T10:33:25.420Z,80.60
2023-02-24T10:39:33.269Z,82.72
2023-02-24T10:45:45.161Z,85.20
2023-02-24T10:51:53.286Z,87.11
2023-02-24T10:58:07.418Z,89.40
2023-02-24T11:04:33.689Z,90.93
2023-02-24T11:10:58.810Z,91.68
2023-02-24T11:17:17.381Z,93.04
2023-02-24T11:23:27.887Z,93.62
2023-02-24T11:30:07.854Z,95.50
2023-02-24T11:36:16.108Z,95.69
2023-02-24T11:42:46.382Z,97.54
2023-02-24T11:48:58.142Z,97.54
2023-02-24T11:55:03.844Z,97.07
2023-02-24T12:01:30.119Z,98.04
2023-02-24T12:07:52.112Z,97.51
2023-02-24T12:14:38.472Z,98.61
2023-02-24T12:21:23.697Z,98.50
2023-02-24T12:27:48.283Z,99.00
2023-02-24T12:34:12.017Z,98.59
2023-02-24T12:40:45.904Z,100.00
2023-02-24T12:46:59.859Z,100.00
2023-02-24T12:53:43.950Z,100.00
2023-02-24T12:59:46.431Z,99.61
2023-02-24T13:06:30.529Z,100.00
2023-02-24T13:12:48.802Z,100.00
2023-02-24T13:18:50.792Z,99.99
2023-02-24T13:25:07.447Z,100.00
2023-02-24T13:31:12.750Z,100.00
2023-02-24T13:37:29.496Z,100.00
2023-02-24T13:43:33.074Z,100.00
2023-02-24T13:50:10.116Z,100.00
2023-02-24T13:57:07.444Z,100.00
2023-02-24T14:03:16.412Z,100.00
2023-02-24T14:09:24.719Z,100.00
2023-02-24T14:15:28.473Z,100.00
2023-02-24T14:21:33.849Z,100.00
2023-02-24T14:27:38.488Z,100.00
2023-02-24T14:33:43.620Z,100.00
2023-02-24T14:39:58.135Z,100.00
2023-02-24T14:46:06.101Z,100.00
2023-02-24T14:52:15.131Z,100.00
2023-02-24T14:58:24.584Z,100.00
2023-02-24T15:04:36.899Z,100.00
2023-02-24T15:10:38.878Z,100.00
2023-02-24T15:16:45.225Z,100.00
2023-02-24T15:22:51.674Z,100.00
2023-02-24T15:29:15.061Z,100.00
2023-02-24T15:35:24.819Z,100.00
2023-02-24T15:41:37.275Z,100.00
2023-02-24T15:47:46.285Z,100.00
2023-02-24T15:53:48.370Z,100.00
2023-02-24T15:59:51.344Z,100.00
2023-02-24T16:05:53.250Z,100.00
2023-02-24T16:11:55.459Z,100.00
2023-02-24T16:17:57.905Z,100.00
2023-02-24T16:23:59.825Z,100.00
2023-02-24T16:30:02.048Z,100.00
2023-02-24T16:36:04.182Z,100.00
2023-02-24T16:42:07.382Z,100.00
2023-02-24T16:48:23.509Z,100.00
2023-02-24T16:54:29.144Z,100.00
2023-02-24T17:00:31.262Z,100.00
2023-02-24T17:06:33.710Z,100.00
2023-02-24T17:12:35.775Z,100.00
2023-02-24T17:18:37.731Z,100.00
2023-02-24T17:24:39.661Z,100.00
2023-02-24T17:30:41.759Z,100.00
2023-02-24T17:36:43.705Z,100.00
2023-02-24T17:42:45.849Z,100.00
2023-02-24T17:48:47.788Z,100.00
2023-02-24T17:54:49.969Z,100.00
2023-02-24T18:00:51.842Z,100.00
2023-02-24T18:06:53.822Z,100.00
2023-02-24T18:12:55.773Z,100.00
2023-02-24T18:18:57.676Z,100.00
2023-02-24T18:25:00.920Z,99.98
2023-02-24T18:31:15.703Z,99.67
2023-02-24T18:37:17.636Z,100.00
2023-02-24T18:43:19.558Z,100.00
2023-02-24T18:49:21.554Z,100.00
2023-02-24T18:55:23.478Z,100.00
2023-02-24T19:01:39.718Z,100.00
2023-02-24T19:07:42.920Z,100.00
2023-02-24T19:13:49.045Z,100.00
2023-02-24T19:19:50.960Z,100.00
2023-02-24T19:25:53.314Z,100.00
2023-02-24T19:31:57.688Z,100.00
2023-02-24T19:37:59.647Z,100.00
2023-02-24T19:44:01.568Z,100.00
2023-02-24T19:50:03.631Z,100.00
2023-02-24T19:56:06.408Z,100.00
2023-02-24T20:02:10.090Z,100.00
2023-02-24T20:08:12.249Z,100.00
2023-02-24T20:14:17.068Z,100.00
2023-02-24T20:20:19.113Z,100.00
2023-02-24T20:26:21.763Z,100.00
2023-02-24T20:32:24.449Z,100.00
2023-02-24T20:38:28.647Z,100.00
2023-02-24T20:44:30.591Z,100.00
2023-02-24T20:50:33.834Z,100.00
2023-02-24T20:56:39.138Z,100.00
2023-02-24T21:02:41.563Z,100.00
2023-02-24T21:08:44.633Z,100.00
2023-02-24T21:14:46.582Z,100.00
2023-02-24T21:20:53.991Z,100.00
2023-02-24T21:26:56.190Z,100.00
2023-02-24T21:32:58.068Z,100.00
2023-02-24T21:39:00.979Z,100.00
2023-02-24T21:45:03.147Z,100.00
2023-02-24T21:51:09.539Z,100.00
2023-02-24T21:57:11.949Z,100.00
2023-02-24T22:03:13.924Z,100.00
2023-02-24T22:09:19.374Z,99.63
2023-02-24T22:15:21.610Z,97.69
2023-02-24T22:21:28.334Z,97.92
2023-02-24T22:27:30.510Z,97.25
2023-02-24T22:33:35.348Z,97.57
2023-02-24T22:39:37.379Z,97.80
2023-02-24T22:45:39.321Z,97.66
2023-02-24T22:51:42.477Z,96.92
2023-02-24T22:57:44.356Z,96.76
2023-02-24T23:03:46.514Z,96.58
2023-02-24T23:09:52.904Z,99.04
2023-02-24T23:15:55.020Z,100.00
2023-02-24T23:21:57.111Z,100.00
2023-02-24T23:27:59.296Z,100.00
2023-02-24T23:34:03.781Z,100.00
2023-02-24T23:40:11.114Z,100.00
2023-02-24T23:46:13.746Z,100.00
2023-02-24T23:52:15.942Z,100.00
2023-02-24T23:58:17.862Z,100.00
